sensor_id;sensor_type;location;lat;lon;timestamp;P1;durP1;ratioP1;P2;durP2;ratioP2
2848;SDS011;59355;52.416;13.412;2023-08-01T00:01:26;12.23;;;5.97;;
2848;SDS011;59355;52.416;13.412;2023-08-01T00:03:51;6.03;;;5.27;;
2848;SDS011;59355;52.416;13.412;2023-08-01T00:06:17;6.80;;;5.33;;
2848;SDS011;59355;52.416;13.412;2023-08-01T00:08:42;6.07;;;5.03;;
2848;SDS011;59355;52.416;13.412;2023-08-01T00:11:07;6.37;;;5.33;;
2848;SDS011;59355;52.416;13.412;2023-08-01T00:13:34;5.87;;;5.20;;
2848;SDS011;59355;52.416;13.412;2023-08-01T00:16:00;6.53;;;4.97;;
2848;SDS011;59355;52.416;13.412;2023-08-01T00:18:25;9.37;;;5.50;;
2848;SDS011;59355;52.416;13.412;2023-08-01T00:20:52;6.73;;;4.97;;
2848;SDS011;59355;52.416;13.412;2023-08-01T00:23:18;6.93;;;5.13;;
2848;SDS011;59355;52.416;13.412;2023-08-01T00:25:43;6.47;;;5.40;;
2848;SDS011;59355;52.416;13.412;2023-08-01T00:28:09;5.03;;;4.30;;
2848;SDS011;59355;52.416;13.412;2023-08-01T00:30:34;7.10;;;4.93;;
2848;SDS011;59355;52.416;13.412;2023-08-01T00:32:59;5.50;;;4.80;;
2848;SDS011;59355;52.416;13.412;2023-08-01T00:35:25;7.20;;;5.40;;
2848;SDS011;59355;52.416;13.412;2023-08-01T00:37:50;4.67;;;3.80;;
2848;SDS011;59355;52.416;13.412;2023-08-01T00:40:15;4.83;;;4.33;;
2848;SDS011;59355;52.416;13.412;2023-08-01T00:42:42;5.13;;;4.13;;
2848;SDS011;59355;52.416;13.412;2023-08-01T00:45:07;5.80;;;4.40;;
2848;SDS011;59355;52.416;13.412;2023-08-01T00:47:34;7.03;;;5.30;;
2848;SDS011;59355;52.416;13.412;2023-08-01T00:49:59;4.97;;;4.47;;
2848;SDS011;59355;52.416;13.412;2023-08-01T00:52:24;6.77;;;4.83;;
2848;SDS011;59355;52.416;13.412;2023-08-01T00:54:50;5.40;;;4.50;;
2848;SDS011;59355;52.416;13.412;2023-08-01T00:57:15;6.87;;;5.17;;
2848;SDS011;59355;52.416;13.412;2023-08-01T00:59:40;5.20;;;4.67;;
2848;SDS011;59355;52.416;13.412;2023-08-01T01:02:06;7.23;;;4.70;;
2848;SDS011;59355;52.416;13.412;2023-08-01T01:04:31;5.37;;;4.57;;
2848;SDS011;59355;52.416;13.412;2023-08-01T01:07:01;7.20;;;5.10;;
2848;SDS011;59355;52.416;13.412;2023-08-01T01:09:28;5.80;;;4.60;;
2848;SDS011;59355;52.416;13.412;2023-08-01T01:11:56;5.33;;;4.23;;
2848;SDS011;59355;52.416;13.412;2023-08-01T01:14:21;8.20;;;5.07;;
2848;SDS011;59355;52.416;13.412;2023-08-01T01:16:47;7.47;;;5.30;;
2848;SDS011;59355;52.416;13.412;2023-08-01T01:19:12;6.70;;;5.07;;
2848;SDS011;59355;52.416;13.412;2023-08-01T01:21:38;9.00;;;5.70;;
2848;SDS011;59355;52.416;13.412;2023-08-01T01:24:04;5.80;;;5.20;;
2848;SDS011;59355;52.416;13.412;2023-08-01T01:26:31;6.20;;;5.60;;
2848;SDS011;59355;52.416;13.412;2023-08-01T01:28:57;6.90;;;5.03;;
2848;SDS011;59355;52.416;13.412;2023-08-01T01:31:23;6.90;;;5.33;;
2848;SDS011;59355;52.416;13.412;2023-08-01T01:33:49;5.80;;;5.20;;
2848;SDS011;59355;52.416;13.412;2023-08-01T01:36:14;8.00;;;5.70;;
2848;SDS011;59355;52.416;13.412;2023-08-01T01:38:39;10.60;;;5.73;;
2848;SDS011;59355;52.416;13.412;2023-08-01T01:41:05;6.00;;;5.37;;
2848;SDS011;59355;52.416;13.412;2023-08-01T01:43:30;7.30;;;5.50;;
2848;SDS011;59355;52.416;13.412;2023-08-01T01:45:55;7.47;;;6.23;;
2848;SDS011;59355;52.416;13.412;2023-08-01T01:48:21;6.20;;;5.60;;
2848;SDS011;59355;52.416;13.412;2023-08-01T01:50:46;7.57;;;5.60;;
2848;SDS011;59355;52.416;13.412;2023-08-01T01:53:11;8.37;;;5.90;;
2848;SDS011;59355;52.416;13.412;2023-08-01T01:55:36;7.90;;;6.10;;
2848;SDS011;59355;52.416;13.412;2023-08-01T01:58:02;6.73;;;5.93;;
2848;SDS011;59355;52.416;13.412;2023-08-01T02:00:27;8.23;;;6.20;;
2848;SDS011;59355;52.416;13.412;2023-08-01T02:02:52;10.00;;;6.93;;
2848;SDS011;59355;52.416;13.412;2023-08-01T02:05:18;6.60;;;5.90;;
2848;SDS011;59355;52.416;13.412;2023-08-01T02:07:43;8.20;;;5.83;;
2848;SDS011;59355;52.416;13.412;2023-08-01T02:10:08;6.70;;;5.60;;
2848;SDS011;59355;52.416;13.412;2023-08-01T02:12:34;7.50;;;6.77;;
2848;SDS011;59355;52.416;13.412;2023-08-01T02:15:00;8.03;;;7.10;;
2848;SDS011;59355;52.416;13.412;2023-08-01T02:17:25;9.00;;;7.10;;
2848;SDS011;59355;52.416;13.412;2023-08-01T02:19:51;8.93;;;7.00;;
2848;SDS011;59355;52.416;13.412;2023-08-01T02:22:16;8.30;;;7.40;;
2848;SDS011;59355;52.416;13.412;2023-08-01T02:24:42;12.13;;;7.80;;
2848;SDS011;59355;52.416;13.412;2023-08-01T02:27:07;7.33;;;6.00;;
2848;SDS011;59355;52.416;13.412;2023-08-01T02:29:32;8.60;;;6.50;;
2848;SDS011;59355;52.416;13.412;2023-08-01T02:31:58;10.03;;;7.03;;
2848;SDS011;59355;52.416;13.412;2023-08-01T02:34:23;8.23;;;6.53;;
2848;SDS011;59355;52.416;13.412;2023-08-01T02:36:48;8.70;;;7.37;;
2848;SDS011;59355;52.416;13.412;2023-08-01T02:39:14;7.33;;;6.10;;
2848;SDS011;59355;52.416;13.412;2023-08-01T02:41:39;7.63;;;6.90;;
2848;SDS011;59355;52.416;13.412;2023-08-01T02:44:04;9.00;;;6.60;;
2848;SDS011;59355;52.416;13.412;2023-08-01T02:46:29;8.13;;;6.90;;
2848;SDS011;59355;52.416;13.412;2023-08-01T02:48:56;8.63;;;6.83;;
2848;SDS011;59355;52.416;13.412;2023-08-01T02:51:21;7.53;;;6.67;;
2848;SDS011;59355;52.416;13.412;2023-08-01T02:53:46;9.70;;;6.90;;
2848;SDS011;59355;52.416;13.412;2023-08-01T02:56:12;9.83;;;6.53;;
2848;SDS011;59355;52.416;13.412;2023-08-01T02:58:37;8.03;;;7.10;;
2848;SDS011;59355;52.416;13.412;2023-08-01T03:01:06;8.77;;;7.30;;
2848;SDS011;59355;52.416;13.412;2023-08-01T03:03:34;7.30;;;6.60;;
2848;SDS011;59355;52.416;13.412;2023-08-01T03:06:00;10.30;;;6.73;;
2848;SDS011;59355;52.416;13.412;2023-08-01T03:08:26;7.00;;;6.30;;
2848;SDS011;59355;52.416;13.412;2023-08-01T03:10:51;9.00;;;7.17;;
2848;SDS011;59355;52.416;13.412;2023-08-01T03:13:16;6.50;;;5.80;;
2848;SDS011;59355;52.416;13.412;2023-08-01T03:15:42;7.10;;;6.40;;
2848;SDS011;59355;52.416;13.412;2023-08-01T03:18:07;7.27;;;6.27;;
2848;SDS011;59355;52.416;13.412;2023-08-01T03:20:32;11.83;;;6.87;;
2848;SDS011;59355;52.416;13.412;2023-08-01T03:22:58;6.90;;;6.17;;
2848;SDS011;59355;52.416;13.412;2023-08-01T03:25:23;8.50;;;6.83;;
2848;SDS011;59355;52.416;13.412;2023-08-01T03:27:49;8.10;;;6.03;;
2848;SDS011;59355;52.416;13.412;2023-08-01T03:30:14;7.30;;;6.30;;
2848;SDS011;59355;52.416;13.412;2023-08-01T03:32:39;8.00;;;5.97;;
2848;SDS011;59355;52.416;13.412;2023-08-01T03:35:05;8.73;;;6.57;;
2848;SDS011;59355;52.416;13.412;2023-08-01T03:37:30;6.97;;;6.30;;
2848;SDS011;59355;52.416;13.412;2023-08-01T03:39:56;9.70;;;6.33;;
2848;SDS011;59355;52.416;13.412;2023-08-01T03:42:21;6.30;;;5.70;;
2848;SDS011;59355;52.416;13.412;2023-08-01T03:44:46;7.83;;;6.53;;
2848;SDS011;59355;52.416;13.412;2023-08-01T03:47:13;9.40;;;6.40;;
2848;SDS011;59355;52.416;13.412;2023-08-01T03:49:38;8.70;;;6.87;;
2848;SDS011;59355;52.416;13.412;2023-08-01T03:52:04;6.60;;;5.20;;
2848;SDS011;59355;52.416;13.412;2023-08-01T03:54:30;6.20;;;5.53;;
2848;SDS011;59355;52.416;13.412;2023-08-01T03:56:55;6.73;;;5.80;;
2848;SDS011;59355;52.416;13.412;2023-08-01T03:59:20;8.80;;;6.30;;
2848;SDS011;59355;52.416;13.412;2023-08-01T04:01:46;10.27;;;5.30;;
2848;SDS011;59355;52.416;13.412;2023-08-01T04:04:11;7.07;;;5.87;;
2848;SDS011;59355;52.416;13.412;2023-08-01T04:06:36;6.57;;;5.43;;
2848;SDS011;59355;52.416;13.412;2023-08-01T04:09:02;5.10;;;4.60;;
2848;SDS011;59355;52.416;13.412;2023-08-01T04:11:27;7.13;;;6.43;;
2848;SDS011;59355;52.416;13.412;2023-08-01T04:13:54;8.73;;;5.57;;
2848;SDS011;59355;52.416;13.412;2023-08-01T04:16:20;6.00;;;5.40;;
2848;SDS011;59355;52.416;13.412;2023-08-01T04:18:45;6.47;;;5.87;;
2848;SDS011;59355;52.416;13.412;2023-08-01T04:21:12;7.90;;;5.60;;
2848;SDS011;59355;52.416;13.412;2023-08-01T04:23:39;7.70;;;5.50;;
2848;SDS011;59355;52.416;13.412;2023-08-01T04:26:04;8.33;;;5.30;;
2848;SDS011;59355;52.416;13.412;2023-08-01T04:28:31;8.80;;;5.60;;
2848;SDS011;59355;52.416;13.412;2023-08-01T04:30:56;5.60;;;4.77;;
2848;SDS011;59355;52.416;13.412;2023-08-01T04:33:22;7.20;;;5.93;;
2848;SDS011;59355;52.416;13.412;2023-08-01T04:35:47;6.50;;;5.40;;
2848;SDS011;59355;52.416;13.412;2023-08-01T04:38:14;6.63;;;5.37;;
2848;SDS011;59355;52.416;13.412;2023-08-01T04:40:39;6.70;;;6.10;;
2848;SDS011;59355;52.416;13.412;2023-08-01T04:43:04;7.03;;;6.07;;
2848;SDS011;59355;52.416;13.412;2023-08-01T04:45:30;6.17;;;5.13;;
2848;SDS011;59355;52.416;13.412;2023-08-01T04:47:55;6.63;;;5.40;;
2848;SDS011;59355;52.416;13.412;2023-08-01T04:50:20;9.40;;;6.33;;
2848;SDS011;59355;52.416;13.412;2023-08-01T04:52:46;8.47;;;6.53;;
2848;SDS011;59355;52.416;13.412;2023-08-01T04:55:11;7.80;;;6.33;;
2848;SDS011;59355;52.416;13.412;2023-08-01T04:57:37;6.50;;;5.80;;
2848;SDS011;59355;52.416;13.412;2023-08-01T05:00:02;6.53;;;5.53;;
2848;SDS011;59355;52.416;13.412;2023-08-01T05:02:29;7.60;;;5.73;;
2848;SDS011;59355;52.416;13.412;2023-08-01T05:04:54;12.50;;;5.90;;
2848;SDS011;59355;52.416;13.412;2023-08-01T05:07:19;7.97;;;5.53;;
2848;SDS011;59355;52.416;13.412;2023-08-01T05:09:45;6.73;;;6.13;;
2848;SDS011;59355;52.416;13.412;2023-08-01T05:12:10;5.87;;;5.10;;
2848;SDS011;59355;52.416;13.412;2023-08-01T05:14:35;7.30;;;5.33;;
2848;SDS011;59355;52.416;13.412;2023-08-01T05:17:01;8.33;;;5.80;;
2848;SDS011;59355;52.416;13.412;2023-08-01T05:19:26;6.80;;;5.20;;
2848;SDS011;59355;52.416;13.412;2023-08-01T05:21:51;5.53;;;4.93;;
2848;SDS011;59355;52.416;13.412;2023-08-01T05:24:17;6.90;;;5.80;;
2848;SDS011;59355;52.416;13.412;2023-08-01T05:26:42;6.90;;;5.60;;
2848;SDS011;59355;52.416;13.412;2023-08-01T05:29:07;6.00;;;5.37;;
2848;SDS011;59355;52.416;13.412;2023-08-01T05:31:33;7.23;;;6.30;;
2848;SDS011;59355;52.416;13.412;2023-08-01T05:33:58;6.33;;;5.37;;
2848;SDS011;59355;52.416;13.412;2023-08-01T05:36:23;5.97;;;5.33;;
2848;SDS011;59355;52.416;13.412;2023-08-01T05:38:49;5.63;;;5.10;;
2848;SDS011;59355;52.416;13.412;2023-08-01T05:41:14;5.67;;;4.67;;
2848;SDS011;59355;52.416;13.412;2023-08-01T05:43:39;8.90;;;5.43;;
2848;SDS011;59355;52.416;13.412;2023-08-01T05:46:05;6.87;;;4.60;;
2848;SDS011;59355;52.416;13.412;2023-08-01T05:48:30;6.60;;;5.17;;
2848;SDS011;59355;52.416;13.412;2023-08-01T05:50:55;9.43;;;4.80;;
2848;SDS011;59355;52.416;13.412;2023-08-01T05:53:21;6.60;;;4.70;;
2848;SDS011;59355;52.416;13.412;2023-08-01T05:55:47;5.87;;;4.83;;
2848;SDS011;59355;52.416;13.412;2023-08-01T05:58:12;5.13;;;4.30;;
2848;SDS011;59355;52.416;13.412;2023-08-01T06:00:37;10.00;;;4.90;;
2848;SDS011;59355;52.416;13.412;2023-08-01T06:03:03;4.87;;;4.27;;
2848;SDS011;59355;52.416;13.412;2023-08-01T06:05:28;7.03;;;4.40;;
2848;SDS011;59355;52.416;13.412;2023-08-01T06:07:53;4.90;;;4.30;;
2848;SDS011;59355;52.416;13.412;2023-08-01T06:10:19;6.80;;;4.73;;
2848;SDS011;59355;52.416;13.412;2023-08-01T06:12:44;5.83;;;4.33;;
2848;SDS011;59355;52.416;13.412;2023-08-01T06:15:10;5.00;;;4.50;;
2848;SDS011;59355;52.416;13.412;2023-08-01T06:17:35;4.83;;;4.40;;
2848;SDS011;59355;52.416;13.412;2023-08-01T06:20:00;4.77;;;4.00;;
2848;SDS011;59355;52.416;13.412;2023-08-01T06:22:29;6.10;;;4.80;;
2848;SDS011;59355;52.416;13.412;2023-08-01T06:24:54;5.00;;;4.47;;
2848;SDS011;59355;52.416;13.412;2023-08-01T06:27:20;5.00;;;3.70;;
2848;SDS011;59355;52.416;13.412;2023-08-01T06:29:45;6.60;;;4.60;;
2848;SDS011;59355;52.416;13.412;2023-08-01T06:32:10;5.10;;;4.30;;
2848;SDS011;59355;52.416;13.412;2023-08-01T06:34:36;4.80;;;4.30;;
2848;SDS011;59355;52.416;13.412;2023-08-01T06:37:01;4.60;;;4.20;;
2848;SDS011;59355;52.416;13.412;2023-08-01T06:39:26;6.87;;;4.90;;
2848;SDS011;59355;52.416;13.412;2023-08-01T06:41:52;6.03;;;4.23;;
2848;SDS011;59355;52.416;13.412;2023-08-01T06:44:17;5.43;;;4.93;;
2848;SDS011;59355;52.416;13.412;2023-08-01T06:46:42;6.53;;;4.60;;
2848;SDS011;59355;52.416;13.412;2023-08-01T06:49:08;5.00;;;4.47;;
2848;SDS011;59355;52.416;13.412;2023-08-01T06:51:33;6.13;;;4.20;;
2848;SDS011;59355;52.416;13.412;2023-08-01T06:53:59;4.80;;;4.23;;
2848;SDS011;59355;52.416;13.412;2023-08-01T06:56:24;4.83;;;4.10;;
2848;SDS011;59355;52.416;13.412;2023-08-01T06:58:49;5.50;;;4.73;;
2848;SDS011;59355;52.416;13.412;2023-08-01T07:01:15;5.23;;;4.43;;
2848;SDS011;59355;52.416;13.412;2023-08-01T07:03:40;6.70;;;4.53;;
2848;SDS011;59355;52.416;13.412;2023-08-01T07:06:05;5.17;;;3.87;;
2848;SDS011;59355;52.416;13.412;2023-08-01T07:08:31;4.30;;;3.90;;
2848;SDS011;59355;52.416;13.412;2023-08-01T07:10:58;4.87;;;4.37;;
2848;SDS011;59355;52.416;13.412;2023-08-01T07:13:24;4.43;;;4.03;;
2848;SDS011;59355;52.416;13.412;2023-08-01T07:15:50;6.13;;;4.67;;
2848;SDS011;59355;52.416;13.412;2023-08-01T07:18:15;4.63;;;4.17;;
2848;SDS011;59355;52.416;13.412;2023-08-01T07:20:41;5.40;;;4.10;;
2848;SDS011;59355;52.416;13.412;2023-08-01T07:23:06;5.73;;;4.40;;
2848;SDS011;59355;52.416;13.412;2023-08-01T07:25:32;4.57;;;4.00;;
2848;SDS011;59355;52.416;13.412;2023-08-01T07:27:57;4.33;;;3.83;;
2848;SDS011;59355;52.416;13.412;2023-08-01T07:30:22;6.30;;;3.90;;
2848;SDS011;59355;52.416;13.412;2023-08-01T07:32:48;4.53;;;4.13;;
2848;SDS011;59355;52.416;13.412;2023-08-01T07:35:13;6.70;;;4.50;;
2848;SDS011;59355;52.416;13.412;2023-08-01T07:37:38;4.20;;;3.30;;
2848;SDS011;59355;52.416;13.412;2023-08-01T07:40:07;4.60;;;3.80;;
2848;SDS011;59355;52.416;13.412;2023-08-01T07:42:33;3.60;;;2.90;;
2848;SDS011;59355;52.416;13.412;2023-08-01T07:44:58;3.90;;;3.40;;
2848;SDS011;59355;52.416;13.412;2023-08-01T07:47:23;5.37;;;3.80;;
2848;SDS011;59355;52.416;13.412;2023-08-01T07:49:49;6.93;;;3.77;;
2848;SDS011;59355;52.416;13.412;2023-08-01T07:52:14;3.83;;;3.33;;
2848;SDS011;59355;52.416;13.412;2023-08-01T07:54:40;3.37;;;3.07;;
2848;SDS011;59355;52.416;13.412;2023-08-01T07:57:05;3.80;;;3.20;;
2848;SDS011;59355;52.416;13.412;2023-08-01T07:59:31;4.27;;;3.57;;
2848;SDS011;59355;52.416;13.412;2023-08-01T08:01:56;4.30;;;3.50;;
2848;SDS011;59355;52.416;13.412;2023-08-01T08:04:21;4.20;;;3.17;;
2848;SDS011;59355;52.416;13.412;2023-08-01T08:06:46;3.60;;;2.90;;
2848;SDS011;59355;52.416;13.412;2023-08-01T08:09:12;3.90;;;3.50;;
2848;SDS011;59355;52.416;13.412;2023-08-01T08:11:37;3.17;;;2.77;;
2848;SDS011;59355;52.416;13.412;2023-08-01T08:14:02;3.60;;;3.30;;
2848;SDS011;59355;52.416;13.412;2023-08-01T08:16:28;4.00;;;3.60;;
2848;SDS011;59355;52.416;13.412;2023-08-01T08:18:53;5.63;;;3.50;;
2848;SDS011;59355;52.416;13.412;2023-08-01T08:21:19;3.60;;;3.13;;
2848;SDS011;59355;52.416;13.412;2023-08-01T08:23:44;3.47;;;3.17;;
2848;SDS011;59355;52.416;13.412;2023-08-01T08:26:09;6.83;;;3.73;;
2848;SDS011;59355;52.416;13.412;2023-08-01T08:28:35;4.87;;;2.90;;
2848;SDS011;59355;52.416;13.412;2023-08-01T08:31:00;3.80;;;2.87;;
2848;SDS011;59355;52.416;13.412;2023-08-01T08:33:29;6.10;;;3.30;;
2848;SDS011;59355;52.416;13.412;2023-08-01T08:35:55;7.80;;;3.17;;
2848;SDS011;59355;52.416;13.412;2023-08-01T08:38:20;3.00;;;2.70;;
2848;SDS011;59355;52.416;13.412;2023-08-01T08:41:08;3.90;;;3.10;;
2848;SDS011;59355;52.416;13.412;2023-08-01T08:43:33;2.97;;;2.30;;
2848;SDS011;59355;52.416;13.412;2023-08-01T08:46:00;5.87;;;2.73;;
2848;SDS011;59355;52.416;13.412;2023-08-01T08:48:25;3.97;;;2.97;;
2848;SDS011;59355;52.416;13.412;2023-08-01T08:50:52;3.77;;;2.57;;
2848;SDS011;59355;52.416;13.412;2023-08-01T08:53:17;3.50;;;2.60;;
2848;SDS011;59355;52.416;13.412;2023-08-01T08:55:43;2.50;;;2.30;;
2848;SDS011;59355;52.416;13.412;2023-08-01T08:58:08;3.93;;;2.87;;
2848;SDS011;59355;52.416;13.412;2023-08-01T09:00:36;3.40;;;2.50;;
2848;SDS011;59355;52.416;13.412;2023-08-01T09:03:03;3.47;;;3.00;;
2848;SDS011;59355;52.416;13.412;2023-08-01T09:05:31;3.30;;;2.40;;
2848;SDS011;59355;52.416;13.412;2023-08-01T09:08:00;2.63;;;2.37;;
2848;SDS011;59355;52.416;13.412;2023-08-01T09:10:28;2.20;;;2.00;;
2848;SDS011;59355;52.416;13.412;2023-08-01T09:12:53;4.57;;;2.13;;
2848;SDS011;59355;52.416;13.412;2023-08-01T09:15:18;3.53;;;1.90;;
2848;SDS011;59355;52.416;13.412;2023-08-01T09:17:48;2.20;;;1.70;;
2848;SDS011;59355;52.416;13.412;2023-08-01T09:20:14;3.13;;;2.53;;
2848;SDS011;59355;52.416;13.412;2023-08-01T09:22:43;2.67;;;1.77;;
2848;SDS011;59355;52.416;13.412;2023-08-01T09:25:09;2.90;;;2.00;;
2848;SDS011;59355;52.416;13.412;2023-08-01T09:27:34;2.00;;;1.53;;
2848;SDS011;59355;52.416;13.412;2023-08-01T09:30:10;3.00;;;1.73;;
2848;SDS011;59355;52.416;13.412;2023-08-01T09:32:38;1.90;;;1.23;;
2848;SDS011;59355;52.416;13.412;2023-08-01T09:35:04;2.83;;;1.70;;
2848;SDS011;59355;52.416;13.412;2023-08-01T09:37:39;2.10;;;1.60;;
2848;SDS011;59355;52.416;13.412;2023-08-01T09:40:06;3.93;;;1.73;;
2848;SDS011;59355;52.416;13.412;2023-08-01T09:42:38;2.03;;;1.20;;
2848;SDS011;59355;52.416;13.412;2023-08-01T09:45:06;2.20;;;1.50;;
2848;SDS011;59355;52.416;13.412;2023-08-01T09:47:44;2.10;;;1.53;;
2848;SDS011;59355;52.416;13.412;2023-08-01T09:50:10;2.83;;;1.53;;
2848;SDS011;59355;52.416;13.412;2023-08-01T09:52:38;2.20;;;1.60;;
2848;SDS011;59355;52.416;13.412;2023-08-01T09:55:03;2.00;;;1.60;;
2848;SDS011;59355;52.416;13.412;2023-08-01T09:57:30;2.23;;;1.33;;
2848;SDS011;59355;52.416;13.412;2023-08-01T09:59:56;3.83;;;1.70;;
2848;SDS011;59355;52.416;13.412;2023-08-01T10:02:23;2.20;;;1.60;;
2848;SDS011;59355;52.416;13.412;2023-08-01T10:04:49;2.20;;;1.70;;
2848;SDS011;59355;52.416;13.412;2023-08-01T10:07:17;2.17;;;1.60;;
2848;SDS011;59355;52.416;13.412;2023-08-01T10:09:46;1.90;;;1.57;;
2848;SDS011;59355;52.416;13.412;2023-08-01T10:12:12;2.40;;;1.80;;
2848;SDS011;59355;52.416;13.412;2023-08-01T10:14:37;2.37;;;1.43;;
2848;SDS011;59355;52.416;13.412;2023-08-01T10:17:04;1.90;;;1.50;;
2848;SDS011;59355;52.416;13.412;2023-08-01T10:19:30;2.17;;;1.60;;
2848;SDS011;59355;52.416;13.412;2023-08-01T10:21:56;1.93;;;1.60;;
2848;SDS011;59355;52.416;13.412;2023-08-01T10:24:22;2.40;;;1.90;;
2848;SDS011;59355;52.416;13.412;2023-08-01T10:26:48;2.20;;;1.43;;
2848;SDS011;59355;52.416;13.412;2023-08-01T10:29:14;2.13;;;1.50;;
2848;SDS011;59355;52.416;13.412;2023-08-01T10:31:39;3.30;;;1.57;;
2848;SDS011;59355;52.416;13.412;2023-08-01T10:34:15;2.60;;;1.70;;
2848;SDS011;59355;52.416;13.412;2023-08-01T10:36:41;2.20;;;1.57;;
2848;SDS011;59355;52.416;13.412;2023-08-01T10:39:06;2.27;;;1.60;;
2848;SDS011;59355;52.416;13.412;2023-08-01T10:41:32;2.20;;;1.60;;
2848;SDS011;59355;52.416;13.412;2023-08-01T10:44:14;2.87;;;1.40;;
2848;SDS011;59355;52.416;13.412;2023-08-01T10:46:51;2.63;;;1.50;;
2848;SDS011;59355;52.416;13.412;2023-08-01T10:54:48;2.10;;;1.50;;
2848;SDS011;59355;52.416;13.412;2023-08-01T10:57:21;2.07;;;1.20;;
2848;SDS011;59355;52.416;13.412;2023-08-01T10:59:46;2.70;;;1.60;;
2848;SDS011;59355;52.416;13.412;2023-08-01T11:02:12;2.40;;;1.50;;
2848;SDS011;59355;52.416;13.412;2023-08-01T11:04:44;2.57;;;1.50;;
2848;SDS011;59355;52.416;13.412;2023-08-01T11:07:37;2.80;;;1.83;;
2848;SDS011;59355;52.416;13.412;2023-08-01T11:10:06;2.37;;;1.53;;
2848;SDS011;59355;52.416;13.412;2023-08-01T11:12:36;4.10;;;2.00;;
2848;SDS011;59355;52.416;13.412;2023-08-01T11:15:03;2.20;;;1.70;;
2848;SDS011;59355;52.416;13.412;2023-08-01T11:17:30;4.00;;;1.80;;
2848;SDS011;59355;52.416;13.412;2023-08-01T11:22:29;2.17;;;1.60;;
2848;SDS011;59355;52.416;13.412;2023-08-01T11:24:54;2.20;;;1.90;;
2848;SDS011;59355;52.416;13.412;2023-08-01T11:27:19;2.40;;;1.90;;
2848;SDS011;59355;52.416;13.412;2023-08-01T11:29:45;3.20;;;2.00;;
2848;SDS011;59355;52.416;13.412;2023-08-01T11:32:10;2.73;;;2.00;;
2848;SDS011;59355;52.416;13.412;2023-08-01T11:34:40;2.80;;;2.50;;
2848;SDS011;59355;52.416;13.412;2023-08-01T11:37:17;5.77;;;2.33;;
2848;SDS011;59355;52.416;13.412;2023-08-01T11:39:43;7.00;;;2.53;;
2848;SDS011;59355;52.416;13.412;2023-08-01T11:42:13;5.10;;;3.10;;
2848;SDS011;59355;52.416;13.412;2023-08-01T11:44:42;3.50;;;2.60;;
2848;SDS011;59355;52.416;13.412;2023-08-01T11:47:14;4.17;;;2.97;;
2848;SDS011;59355;52.416;13.412;2023-08-01T11:49:47;4.77;;;3.30;;
2848;SDS011;59355;52.416;13.412;2023-08-01T11:52:26;3.77;;;3.30;;
2848;SDS011;59355;52.416;13.412;2023-08-01T11:54:52;4.93;;;3.87;;
2848;SDS011;59355;52.416;13.412;2023-08-01T11:57:19;5.80;;;4.00;;
2848;SDS011;59355;52.416;13.412;2023-08-01T11:59:48;6.17;;;4.20;;
2848;SDS011;59355;52.416;13.412;2023-08-01T12:04:48;4.57;;;3.73;;
2848;SDS011;59355;52.416;13.412;2023-08-01T12:07:13;4.57;;;3.80;;
2848;SDS011;59355;52.416;13.412;2023-08-01T12:09:40;5.17;;;4.67;;
2848;SDS011;59355;52.416;13.412;2023-08-01T12:12:05;5.27;;;4.53;;
2848;SDS011;59355;52.416;13.412;2023-08-01T12:14:30;4.10;;;3.70;;
2848;SDS011;59355;52.416;13.412;2023-08-01T12:16:56;5.00;;;3.67;;
2848;SDS011;59355;52.416;13.412;2023-08-01T12:19:21;5.07;;;3.70;;
2848;SDS011;59355;52.416;13.412;2023-08-01T12:21:47;5.33;;;3.43;;
2848;SDS011;59355;52.416;13.412;2023-08-01T12:24:13;6.73;;;4.20;;
2848;SDS011;59355;52.416;13.412;2023-08-01T12:26:38;4.30;;;3.33;;
2848;SDS011;59355;52.416;13.412;2023-08-01T12:29:03;4.57;;;4.10;;
2848;SDS011;59355;52.416;13.412;2023-08-01T12:31:29;6.23;;;4.73;;
2848;SDS011;59355;52.416;13.412;2023-08-01T12:33:54;6.83;;;4.70;;
2848;SDS011;59355;52.416;13.412;2023-08-01T12:36:19;4.63;;;3.70;;
2848;SDS011;59355;52.416;13.412;2023-08-01T12:38:45;7.33;;;4.20;;
2848;SDS011;59355;52.416;13.412;2023-08-01T12:41:10;6.47;;;3.80;;
2848;SDS011;59355;52.416;13.412;2023-08-01T12:43:36;5.53;;;4.60;;
2848;SDS011;59355;52.416;13.412;2023-08-01T12:46:01;4.33;;;3.93;;
2848;SDS011;59355;52.416;13.412;2023-08-01T12:48:27;4.30;;;3.90;;
2848;SDS011;59355;52.416;13.412;2023-08-01T12:50:53;7.10;;;4.93;;
2848;SDS011;59355;52.416;13.412;2023-08-01T12:53:18;4.67;;;3.80;;
2848;SDS011;59355;52.416;13.412;2023-08-01T12:55:44;5.23;;;4.13;;
2848;SDS011;59355;52.416;13.412;2023-08-01T12:58:11;5.63;;;4.40;;
2848;SDS011;59355;52.416;13.412;2023-08-01T13:00:36;5.60;;;4.97;;
2848;SDS011;59355;52.416;13.412;2023-08-01T13:03:01;5.90;;;4.33;;
2848;SDS011;59355;52.416;13.412;2023-08-01T13:05:27;3.97;;;3.57;;
2848;SDS011;59355;52.416;13.412;2023-08-01T13:07:52;4.70;;;3.40;;
2848;SDS011;59355;52.416;13.412;2023-08-01T13:10:17;6.27;;;4.20;;
2848;SDS011;59355;52.416;13.412;2023-08-01T13:12:43;7.40;;;4.23;;
2848;SDS011;59355;52.416;13.412;2023-08-01T13:15:08;4.73;;;3.80;;
2848;SDS011;59355;52.416;13.412;2023-08-01T13:17:34;5.60;;;3.70;;
2848;SDS011;59355;52.416;13.412;2023-08-01T13:19:59;4.63;;;4.13;;
2848;SDS011;59355;52.416;13.412;2023-08-01T13:22:24;4.83;;;4.33;;
2848;SDS011;59355;52.416;13.412;2023-08-01T13:24:50;4.43;;;4.00;;
2848;SDS011;59355;52.416;13.412;2023-08-01T13:27:15;8.93;;;5.10;;
2848;SDS011;59355;52.416;13.412;2023-08-01T13:29:40;5.40;;;3.87;;
2848;SDS011;59355;52.416;13.412;2023-08-01T13:32:06;7.30;;;4.40;;
2848;SDS011;59355;52.416;13.412;2023-08-01T13:34:31;5.43;;;4.17;;
2848;SDS011;59355;52.416;13.412;2023-08-01T13:36:57;6.70;;;4.00;;
2848;SDS011;59355;52.416;13.412;2023-08-01T13:39:22;5.13;;;3.87;;
2848;SDS011;59355;52.416;13.412;2023-08-01T13:41:47;4.53;;;3.70;;
2848;SDS011;59355;52.416;13.412;2023-08-01T13:44:13;5.03;;;3.47;;
2848;SDS011;59355;52.416;13.412;2023-08-01T13:46:38;3.90;;;3.43;;
2848;SDS011;59355;52.416;13.412;2023-08-01T13:49:03;5.20;;;3.73;;
2848;SDS011;59355;52.416;13.412;2023-08-01T13:51:32;5.07;;;3.97;;
2848;SDS011;59355;52.416;13.412;2023-08-01T13:53:57;7.60;;;4.10;;
2848;SDS011;59355;52.416;13.412;2023-08-01T13:56:24;4.97;;;4.10;;
2848;SDS011;59355;52.416;13.412;2023-08-01T13:58:50;6.67;;;3.90;;
2848;SDS011;59355;52.416;13.412;2023-08-01T14:01:15;5.27;;;3.90;;
2848;SDS011;59355;52.416;13.412;2023-08-01T14:03:40;6.07;;;3.97;;
2848;SDS011;59355;52.416;13.412;2023-08-01T14:06:06;6.23;;;4.20;;
2848;SDS011;59355;52.416;13.412;2023-08-01T14:08:36;5.83;;;3.87;;
2848;SDS011;59355;52.416;13.412;2023-08-01T14:11:02;5.37;;;3.93;;
2848;SDS011;59355;52.416;13.412;2023-08-01T14:13:28;7.70;;;4.33;;
2848;SDS011;59355;52.416;13.412;2023-08-01T14:15:53;6.73;;;4.17;;
2848;SDS011;59355;52.416;13.412;2023-08-01T14:18:18;5.50;;;3.80;;
2848;SDS011;59355;52.416;13.412;2023-08-01T14:20:44;7.10;;;3.87;;
2848;SDS011;59355;52.416;13.412;2023-08-01T14:23:09;4.70;;;3.83;;
2848;SDS011;59355;52.416;13.412;2023-08-01T14:25:34;4.20;;;3.37;;
2848;SDS011;59355;52.416;13.412;2023-08-01T14:28:00;5.47;;;3.77;;
2848;SDS011;59355;52.416;13.412;2023-08-01T14:30:27;4.03;;;3.13;;
2848;SDS011;59355;52.416;13.412;2023-08-01T14:32:58;5.80;;;3.60;;
2848;SDS011;59355;52.416;13.412;2023-08-01T14:35:27;5.23;;;3.20;;
2848;SDS011;59355;52.416;13.412;2023-08-01T14:37:52;4.50;;;3.20;;
2848;SDS011;59355;52.416;13.412;2023-08-01T14:40:17;4.93;;;3.50;;
2848;SDS011;59355;52.416;13.412;2023-08-01T14:42:43;5.40;;;3.70;;
2848;SDS011;59355;52.416;13.412;2023-08-01T14:45:08;4.73;;;3.43;;
2848;SDS011;59355;52.416;13.412;2023-08-01T14:47:33;3.70;;;2.73;;
2848;SDS011;59355;52.416;13.412;2023-08-01T14:49:59;5.77;;;3.83;;
2848;SDS011;59355;52.416;13.412;2023-08-01T14:52:24;4.03;;;3.57;;